Time;durP1;ratioP1;P1;durP2;ratioP2;P2;SDS_P1;SDS_P2;PMS_P1;PMS_P2;Temp;Humidity;BMP_temperature;BMP_pressure;BME280_temperature;BME280_humidity;BME280_pressure;Samples;Min_cycle;Max_cycle;Signal;HPM_P1;HPM_P2
2021/12/22 00:00:53;;;;;;;27.90;13.43;;;0.80;99.90;;;;;;5095763;28;20268;-54
2021/12/22 00:03:20;;;;;;;28.40;13.97;;;0.80;99.90;;;;;;5094223;27;20194;-54
2021/12/22 00:05:48;;;;;;;27.43;14.27;;;0.80;99.90;;;;;;5095082;28;20194;-52
2021/12/22 00:08:17;;;;;;;24.90;13.33;;;0.80;99.90;;;;;;5093184;28;20638;-55
2021/12/22 00:10:46;;;;;;;29.60;14.57;;;0.90;99.90;;;;;;5094973;27;20207;-54
2021/12/22 00:13:13;;;;;;;26.30;14.57;;;0.80;99.90;;;;;;5102212;27;20206;-55
2021/12/22 00:15:40;;;;;;;26.83;14.07;;;0.80;99.90;;;;;;5098261;28;20603;-52
2021/12/22 00:18:07;;;;;;;22.13;12.40;;;0.80;99.90;;;;;;5095327;27;20238;-54
2021/12/22 00:20:34;;;;;;;23.63;12.83;;;0.80;99.90;;;;;;5097491;28;20246;-54
2021/12/22 00:23:01;;;;;;;26.03;13.90;;;0.60;99.90;;;;;;5094304;28;20250;-54
2021/12/22 00:25:28;;;;;;;27.53;13.83;;;0.50;99.90;;;;;;5098534;28;20697;-55
2021/12/22 00:27:56;;;;;;;28.83;14.70;;;0.40;99.90;;;;;;5097265;28;20226;-53
2021/12/22 00:30:24;;;;;;;30.67;14.03;;;0.40;99.90;;;;;;5093505;28;20302;-53
2021/12/22 00:32:55;;;;;;;30.47;13.83;;;0.40;99.90;;;;;;5097069;28;20281;-56
2021/12/22 00:35:29;;;;;;;25.60;13.23;;;0.50;99.90;;;;;;5097110;28;20662;-54
2021/12/22 00:37:56;;;;;;;26.27;11.63;;;0.60;99.90;;;;;;5093934;28;20201;-52
2021/12/22 00:40:23;;;;;;;22.07;13.00;;;0.60;99.90;;;;;;5094014;28;20232;-54
2021/12/22 00:42:50;;;;;;;27.17;12.87;;;0.60;99.90;;;;;;5096297;28;20262;-55
2021/12/22 00:45:18;;;;;;;27.43;14.27;;;0.60;99.90;;;;;;5099955;28;20740;-54
2021/12/22 00:47:45;;;;;;;22.83;13.03;;;0.50;99.90;;;;;;5097920;28;20206;-54
2021/12/22 00:50:12;;;;;;;29.83;13.70;;;0.50;99.90;;;;;;5095915;28;20210;-53
2021/12/22 00:52:39;;;;;;;25.73;13.33;;;0.50;99.90;;;;;;5097685;28;20715;-53
2021/12/22 00:55:07;;;;;;;24.73;11.90;;;0.60;99.90;;;;;;5098651;28;20228;-51
2021/12/22 00:57:35;;;;;;;22.03;12.87;;;0.60;99.90;;;;;;5093102;28;20229;-52
2021/12/22 01:00:03;;;;;;;22.70;12.77;;;0.60;99.90;;;;;;5094154;28;20324;-53
2021/12/22 01:02:30;;;;;;;25.10;13.43;;;0.60;99.90;;;;;;5093067;28;20203;-52
2021/12/22 01:04:57;;;;;;;26.20;13.43;;;0.70;99.90;;;;;;5098023;28;20681;-53
2021/12/22 01:07:24;;;;;;;24.80;12.90;;;0.60;99.90;;;;;;5100177;27;20245;-52
2021/12/22 01:10:13;;;;;;;23.33;12.47;;;0.50;99.90;;;;;;5100888;27;20954;-54
2021/12/22 01:12:40;;;;;;;24.20;12.43;;;0.30;99.90;;;;;;5101248;27;20743;-58
2021/12/22 01:15:11;;;;;;;23.57;13.17;;;0.30;99.90;;;;;;5098734;27;20657;-52
2021/12/22 01:17:44;;;;;;;24.53;12.17;;;0.30;99.90;;;;;;5099277;27;20293;-53
2021/12/22 01:21:04;;;;;;;25.30;13.03;;;0.30;99.90;;;;;;5098420;27;20310;-52
2021/12/22 01:23:05;;;;;;;24.67;13.47;;;0.20;99.90;;;;;;5096274;28;20313;-57
2021/12/22 01:25:37;;;;;;;24.90;12.87;;;0.20;99.90;;;;;;5098369;28;20241;-52
2021/12/22 01:28:04;;;;;;;27.83;14.20;;;0.10;99.90;;;;;;5096611;28;20267;-50
2021/12/22 01:30:32;;;;;;;27.57;12.87;;;0.20;99.90;;;;;;5097270;27;20622;-54
2021/12/22 01:33:02;;;;;;;26.60;13.23;;;0.20;99.90;;;;;;5100428;27;20283;-54
2021/12/22 01:35:34;;;;;;;28.00;13.30;;;0.10;99.90;;;;;;5098492;28;20205;-51
2021/12/22 01:38:02;;;;;;;27.13;13.23;;;0.00;99.90;;;;;;5112534;27;20670;-54
2021/12/22 01:40:29;;;;;;;24.17;13.07;;;-0.10;99.90;;;;;;5097319;28;20222;-54
2021/12/22 01:42:58;;;;;;;21.83;11.90;;;-0.30;99.90;;;;;;5095543;27;20824;-53
2021/12/22 01:49:11;;;;;;;23.30;12.67;;;-0.30;99.90;;;;;;5097454;27;20274;-54
2021/12/22 01:51:38;;;;;;;24.53;12.60;;;-0.30;99.90;;;;;;5050151;28;20214;-53
2021/12/22 01:54:19;;;;;;;24.67;11.73;;;-0.30;99.90;;;;;;5098267;28;20207;-52
2021/12/22 01:56:49;;;;;;;27.67;13.23;;;-0.20;99.90;;;;;;5097152;27;20608;-55
2021/12/22 01:59:16;;;;;;;27.93;13.13;;;-0.20;99.90;;;;;;5097293;27;20277;-55
2021/12/22 02:01:43;;;;;;;28.07;13.07;;;-0.20;99.90;;;;;;5099022;28;20198;-61
2021/12/22 02:04:12;;;;;;;20.63;13.03;;;-0.20;99.90;;;;;;5097398;28;20281;-54
2021/12/22 02:06:44;;;;;;;27.60;12.80;;;-0.10;99.90;;;;;;5097415;28;20208;-52
2021/12/22 02:09:52;;;;;;;27.33;13.43;;;0.00;99.90;;;;;;5096690;27;20674;-52
2021/12/22 02:12:16;;;;;;;25.33;12.30;;;-0.20;99.90;;;;;;5098807;27;21411;-55
2021/12/22 02:14:45;;;;;;;23.93;12.57;;;-0.10;99.90;;;;;;5096358;28;20909;-52
2021/12/22 02:17:13;;;;;;;28.93;13.93;;;0.00;99.90;;;;;;5095768;27;20261;-54
2021/12/22 02:19:44;;;;;;;22.60;12.33;;;-0.10;99.90;;;;;;5097743;27;20229;-57
2021/12/22 02:22:14;;;;;;;25.47;12.93;;;-0.20;99.90;;;;;;5095051;27;20197;-55
2021/12/22 02:24:51;;;;;;;25.77;13.57;;;-0.30;99.90;;;;;;5097032;27;20609;-54
2021/12/22 02:27:32;;;;;;;23.53;13.03;;;-0.40;99.90;;;;;;5096972;27;20222;-57
2021/12/22 02:30:03;;;;;;;25.63;13.63;;;-0.40;99.90;;;;;;5095929;27;20274;-57
2021/12/22 02:35:05;;;;;;;25.30;12.53;;;-0.20;99.90;;;;;;5097101;27;20213;-57
2021/12/22 02:37:42;;;;;;;30.40;14.40;;;0.00;99.90;;;;;;5098039;27;20520;-57
2021/12/22 02:40:13;;;;;;;22.23;12.13;;;-0.10;99.90;;;;;;5094828;27;20279;-56
2021/12/22 02:42:42;;;;;;;25.57;12.07;;;-0.10;99.90;;;;;;5096177;28;20303;-55
2021/12/22 02:45:19;;;;;;;25.07;12.50;;;-0.10;99.90;;;;;;5110669;27;20317;-57
2021/12/22 02:47:47;;;;;;;25.27;12.13;;;-0.10;99.90;;;;;;5094863;27;20205;-56
2021/12/22 02:50:15;;;;;;;27.50;13.17;;;-0.20;99.90;;;;;;5094438;27;20202;-56
2021/12/22 02:55:10;;;;;;;26.83;12.70;;;-0.10;99.90;;;;;;5098386;28;20679;-53
2021/12/22 02:57:43;;;;;;;26.33;13.23;;;-0.10;99.90;;;;;;5096779;28;20206;-54
2021/12/22 03:03:29;;;;;;;25.47;12.07;;;0.00;99.90;;;;;;5064954;27;21741;-57
2021/12/22 03:05:58;;;;;;;22.47;11.93;;;0.00;99.90;;;;;;5097095;27;20292;-56
2021/12/22 03:08:24;;;;;;;25.17;12.73;;;0.10;99.90;;;;;;5112354;27;20630;-58
2021/12/22 03:10:53;;;;;;;26.10;13.80;;;0.10;99.90;;;;;;5096563;27;20194;-56
2021/12/22 03:13:21;;;;;;;27.73;12.87;;;0.10;99.90;;;;;;5095949;27;20194;-57
2021/12/22 03:15:48;;;;;;;28.33;12.97;;;0.10;99.90;;;;;;5093627;27;20255;-56
2021/12/22 03:18:16;;;;;;;27.03;12.87;;;0.00;99.90;;;;;;5095914;27;20321;-54
2021/12/22 03:20:45;;;;;;;26.57;12.47;;;0.00;99.90;;;;;;5093812;28;20244;-56
2021/12/22 03:23:12;;;;;;;22.60;12.80;;;0.10;99.90;;;;;;5096871;28;20297;-57
2021/12/22 03:25:39;;;;;;;20.97;12.63;;;0.10;99.90;;;;;;5098087;28;20284;-55
2021/12/22 03:28:06;;;;;;;29.23;13.03;;;0.00;99.90;;;;;;5095512;27;20667;-54
2021/12/22 03:30:34;;;;;;;28.43;13.10;;;0.00;99.90;;;;;;5097115;27;20198;-57
2021/12/22 03:33:01;;;;;;;23.83;12.67;;;0.00;99.90;;;;;;5098140;27;20244;-57
2021/12/22 03:35:28;;;;;;;26.40;13.00;;;0.00;99.90;;;;;;5095400;28;20202;-56
2021/12/22 03:37:57;;;;;;;23.33;12.67;;;-0.10;99.90;;;;;;5095758;27;20383;-53
2021/12/22 03:40:26;;;;;;;25.70;12.60;;;-0.10;99.90;;;;;;5096898;27;20246;-52
2021/12/22 03:42:54;;;;;;;28.17;12.97;;;0.00;99.90;;;;;;5094998;27;20229;-53
2021/12/22 03:45:22;;;;;;;24.00;12.10;;;-0.10;99.90;;;;;;5096772;28;20230;-57
2021/12/22 03:47:49;;;;;;;24.93;12.80;;;-0.10;99.90;;;;;;5094450;28;20199;-55
2021/12/22 03:50:17;;;;;;;23.40;12.00;;;-0.20;99.90;;;;;;5094409;27;20711;-54
2021/12/22 03:52:44;;;;;;;25.03;12.37;;;-0.20;99.90;;;;;;5098325;28;20266;-54
2021/12/22 03:55:11;;;;;;;28.57;12.83;;;-0.20;99.90;;;;;;5094582;27;20714;-56
2021/12/22 03:57:38;;;;;;;24.67;12.83;;;-0.10;99.90;;;;;;5097446;28;20201;-55
2021/12/22 04:00:08;;;;;;;24.00;12.73;;;-0.20;99.90;;;;;;5095137;27;20632;-54
2021/12/22 04:02:35;;;;;;;25.50;12.70;;;-0.20;99.90;;;;;;5097571;28;20198;-55
2021/12/22 04:05:03;;;;;;;24.67;11.90;;;-0.20;99.90;;;;;;5091973;28;20201;-53
2021/12/22 04:07:31;;;;;;;23.43;11.93;;;-0.20;99.90;;;;;;5096664;28;20206;-56
2021/12/22 04:09:59;;;;;;;22.73;11.97;;;-0.20;99.90;;;;;;5097523;27;20225;-54
2021/12/22 04:12:26;;;;;;;23.07;12.33;;;-0.30;99.90;;;;;;5095669;27;20222;-55
2021/12/22 04:14:53;;;;;;;24.57;12.93;;;-0.40;99.90;;;;;;5095443;28;20198;-54
2021/12/22 04:17:19;;;;;;;24.20;12.27;;;-0.30;99.90;;;;;;5089855;28;20264;-53
2021/12/22 04:19:46;;;;;;;21.40;12.23;;;-0.30;99.90;;;;;;5092800;27;20202;-54
2021/12/22 04:22:13;;;;;;;22.83;12.23;;;-0.30;99.90;;;;;;5099392;27;20210;-53
2021/12/22 04:24:40;;;;;;;23.37;11.77;;;-0.30;99.90;;;;;;5093281;28;20642;-55
2021/12/22 04:27:07;;;;;;;25.50;12.87;;;-0.40;99.90;;;;;;5094342;27;20285;-55
2021/12/22 04:29:34;;;;;;;28.90;13.03;;;-0.40;99.90;;;;;;5094748;27;20297;-55
2021/12/22 04:32:01;;;;;;;30.73;13.13;;;-0.40;99.90;;;;;;5091164;28;20672;-56
2021/12/22 04:34:28;;;;;;;22.20;12.00;;;-0.50;99.90;;;;;;5092061;28;20269;-57
2021/12/22 04:36:54;;;;;;;31.57;13.13;;;-0.50;99.90;;;;;;5095971;28;20225;-59
2021/12/22 04:39:21;;;;;;;25.17;13.10;;;-0.60;99.90;;;;;;5094076;28;20202;-56
2021/12/22 04:41:48;;;;;;;30.70;12.87;;;-0.60;99.90;;;;;;5095004;28;20294;-56
2021/12/22 04:44:15;;;;;;;23.43;10.87;;;-0.60;99.90;;;;;;5092960;28;20517;-56
2021/12/22 04:46:42;;;;;;;20.10;11.43;;;-0.50;99.90;;;;;;5094413;28;20887;-54
2021/12/22 04:49:09;;;;;;;23.40;12.60;;;-0.60;99.90;;;;;;5092880;28;20208;-56
2021/12/22 04:51:37;;;;;;;28.13;13.07;;;-0.60;99.90;;;;;;5095844;28;20298;-54
2021/12/22 04:54:33;;;;;;;22.50;12.30;;;-0.50;99.90;;;;;;5095342;28;20261;-55
2021/12/22 04:56:55;;;;;;;18.13;10.63;;;-0.50;99.90;;;;;;5095272;28;20968;-53
2021/12/22 04:59:22;;;;;;;26.10;11.57;;;-0.60;99.90;;;;;;5092742;28;20296;-55
2021/12/22 05:01:51;;;;;;;25.40;12.77;;;-0.50;99.90;;;;;;5090679;28;20223;-55
2021/12/22 05:04:18;;;;;;;23.90;11.60;;;-0.50;99.90;;;;;;5092233;28;20599;-55
2021/12/22 05:06:44;;;;;;;22.93;11.93;;;-0.40;99.90;;;;;;5091832;28;20220;-55
2021/12/22 05:09:11;;;;;;;28.80;11.60;;;-0.40;99.90;;;;;;5095326;28;20710;-53
2021/12/22 05:11:39;;;;;;;28.00;12.10;;;-0.50;99.90;;;;;;5094033;28;20204;-54
2021/12/22 05:14:08;;;;;;;28.17;12.70;;;-0.50;99.90;;;;;;5093931;28;20321;-54
2021/12/22 05:16:44;;;;;;;25.80;13.07;;;-0.50;99.90;;;;;;5092637;28;20289;-51
2021/12/22 05:21:38;;;;;;;27.40;12.53;;;-0.50;99.90;;;;;;5095177;28;20306;-53
2021/12/22 05:24:05;;;;;;;23.07;11.13;;;-0.50;99.90;;;;;;5096963;28;20202;-54
2021/12/22 05:26:32;;;;;;;23.90;11.17;;;-0.60;99.90;;;;;;5094731;28;20235;-54
2021/12/22 05:28:59;;;;;;;27.03;12.73;;;-0.60;99.90;;;;;;5097617;28;20737;-54
2021/12/22 05:31:27;;;;;;;25.10;12.10;;;-0.60;99.90;;;;;;5097068;28;20217;-53
2021/12/22 05:33:55;;;;;;;22.77;11.93;;;-0.60;99.90;;;;;;5095055;28;20604;-51
2021/12/22 05:36:22;;;;;;;24.17;11.03;;;-0.60;99.90;;;;;;5094678;28;20199;-56
2021/12/22 05:38:49;;;;;;;31.77;11.00;;;-0.50;99.90;;;;;;5094419;28;20566;-55
2021/12/22 05:41:16;;;;;;;26.60;12.23;;;-0.50;99.90;;;;;;5089936;28;20549;-51
2021/12/22 05:43:42;;;;;;;20.33;10.50;;;-0.50;99.90;;;;;;5092500;28;20281;-53
2021/12/22 05:46:09;;;;;;;21.27;11.10;;;-0.50;99.90;;;;;;5089269;28;20737;-54
2021/12/22 05:48:36;;;;;;;23.40;11.77;;;-0.50;99.90;;;;;;5092242;28;20651;-55
2021/12/22 05:51:03;;;;;;;20.47;10.97;;;-0.50;99.90;;;;;;5095289;27;20740;-55
2021/12/22 05:53:31;;;;;;;27.13;11.93;;;-0.60;99.90;;;;;;5098748;28;20225;-53
2021/12/22 05:55:58;;;;;;;19.43;10.23;;;-0.50;99.90;;;;;;5097647;27;20314;-54
2021/12/22 05:58:25;;;;;;;18.93;10.63;;;-0.40;99.90;;;;;;5097282;27;20213;-54
2021/12/22 06:00:52;;;;;;;24.47;11.07;;;-0.50;99.90;;;;;;5094360;27;20317;-51
2021/12/22 06:03:19;;;;;;;29.23;11.20;;;-0.60;99.90;;;;;;5097599;28;20202;-52
2021/12/22 06:05:46;;;;;;;17.47;10.43;;;-0.60;99.90;;;;;;5095148;28;20657;-52
2021/12/22 06:08:13;;;;;;;20.17;12.37;;;-0.70;99.90;;;;;;5099978;28;20225;-50
2021/12/22 06:10:40;;;;;;;21.30;11.00;;;-0.60;99.90;;;;;;5098392;27;20240;-51
2021/12/22 06:13:09;;;;;;;18.40;10.50;;;-0.70;99.90;;;;;;5094327;27;20193;-52
2021/12/22 06:15:37;;;;;;;19.03;10.20;;;-0.70;99.90;;;;;;5096379;28;20608;-52
2021/12/22 06:18:05;;;;;;;19.73;10.53;;;-0.70;99.90;;;;;;5095662;28;20209;-53
2021/12/22 06:20:32;;;;;;;22.23;11.37;;;-0.60;99.90;;;;;;5097666;28;20624;-51
2021/12/22 06:23:00;;;;;;;21.60;10.30;;;-0.60;99.90;;;;;;5093741;28;20289;-55
2021/12/22 06:25:27;;;;;;;22.53;10.90;;;-0.70;99.90;;;;;;5099833;27;20195;-55
2021/12/22 06:27:54;;;;;;;23.60;10.23;;;-0.70;99.90;;;;;;5097378;27;20221;-55
2021/12/22 06:30:22;;;;;;;23.03;11.43;;;-0.70;99.90;;;;;;5097880;27;20655;-56
2021/12/22 06:32:50;;;;;;;20.40;10.17;;;-0.70;99.90;;;;;;5098221;27;20316;-55
2021/12/22 06:35:17;;;;;;;20.03;9.80;;;-0.70;99.90;;;;;;5096657;27;20325;-54
2021/12/22 06:37:45;;;;;;;20.90;10.40;;;-0.80;99.90;;;;;;5096961;28;20314;-55
2021/12/22 06:40:13;;;;;;;24.50;11.50;;;-0.80;99.90;;;;;;5097932;28;20213;-54
2021/12/22 06:42:40;;;;;;;18.80;10.63;;;-0.70;99.90;;;;;;5099038;27;20332;-51
2021/12/22 06:45:09;;;;;;;23.60;11.03;;;-0.80;99.90;;;;;;5100222;27;20290;-53
2021/12/22 06:47:37;;;;;;;20.50;10.73;;;-0.80;99.90;;;;;;5099712;28;20629;-53
2021/12/22 06:50:05;;;;;;;23.03;9.57;;;-0.70;99.90;;;;;;5096656;27;20244;-53
2021/12/22 06:52:32;;;;;;;19.00;9.40;;;-0.70;99.90;;;;;;5097924;27;20198;-53
2021/12/22 06:55:00;;;;;;;17.00;9.53;;;-0.70;99.90;;;;;;5098819;27;20588;-56
2021/12/22 06:57:29;;;;;;;20.77;10.00;;;-0.70;99.90;;;;;;5095778;28;20388;-52
2021/12/22 06:59:57;;;;;;;18.63;9.83;;;-0.80;99.90;;;;;;5097012;28;20376;-53
2021/12/22 07:02:25;;;;;;;19.03;9.37;;;-0.80;99.90;;;;;;5095072;28;20222;-51
2021/12/22 07:04:53;;;;;;;14.77;9.73;;;-0.80;99.90;;;;;;5097964;28;20221;-52
2021/12/22 07:07:20;;;;;;;20.50;10.40;;;-0.90;99.90;;;;;;5096759;27;20300;-51
2021/12/22 07:09:46;;;;;;;25.17;10.60;;;-0.90;99.90;;;;;;5096282;28;20304;-55
2021/12/22 07:12:13;;;;;;;20.67;9.20;;;-0.80;99.90;;;;;;5097149;27;20239;-54
2021/12/22 07:14:40;;;;;;;22.13;9.33;;;-0.80;99.90;;;;;;5097303;27;20297;-51
2021/12/22 07:17:09;;;;;;;23.07;9.57;;;-0.80;99.90;;;;;;5097062;27;20693;-56
2021/12/22 07:19:36;;;;;;;19.03;9.93;;;-0.80;99.90;;;;;;5097011;27;20205;-55
2021/12/22 07:22:03;;;;;;;20.53;9.23;;;-0.80;99.90;;;;;;5098258;27;20807;-56
2021/12/22 07:24:30;;;;;;;17.23;9.50;;;-0.80;99.90;;;;;;5098592;27;20202;-53
2021/12/22 07:26:57;;;;;;;15.20;9.33;;;-0.80;99.90;;;;;;5095433;28;20889;-56
2021/12/22 07:29:24;;;;;;;19.90;10.13;;;-0.80;99.90;;;;;;5093766;27;20377;-55
2021/12/22 07:31:51;;;;;;;14.37;8.90;;;-0.80;99.90;;;;;;5095508;28;20316;-54
2021/12/22 07:34:41;;;;;;;21.77;9.77;;;-0.90;99.90;;;;;;5096647;27;20659;-52
2021/12/22 07:37:27;;;;;;;19.43;9.37;;;-0.90;99.90;;;;;;5096989;28;20921;-53
2021/12/22 07:39:54;;;;;;;24.03;9.67;;;-0.80;99.90;;;;;;5095899;27;20279;-53
2021/12/22 07:42:21;;;;;;;19.27;9.10;;;-0.80;99.90;;;;;;5094538;27;20324;-54
2021/12/22 07:44:48;;;;;;;17.23;8.47;;;-0.90;99.90;;;;;;5090587;27;20860;-54
2021/12/22 07:47:15;;;;;;;15.97;8.90;;;-0.80;99.90;;;;;;5089434;28;20202;-55
2021/12/22 07:49:42;;;;;;;15.33;9.03;;;-0.70;99.90;;;;;;5095074;28;20285;-55
2021/12/22 07:52:09;;;;;;;18.33;9.60;;;-0.70;99.90;;;;;;5096687;28;20230;-54
2021/12/22 07:54:35;;;;;;;15.90;9.03;;;-0.70;99.90;;;;;;5091041;28;20292;-56
2021/12/22 07:57:03;;;;;;;16.57;8.23;;;-0.70;99.90;;;;;;5094342;28;20650;-53
2021/12/22 07:59:29;;;;;;;16.73;8.77;;;-0.80;99.90;;;;;;5095087;27;20336;-54
2021/12/22 08:01:57;;;;;;;12.17;7.37;;;-0.80;99.90;;;;;;5093558;28;20647;-54
2021/12/22 08:04:24;;;;;;;15.17;9.17;;;-0.90;99.90;;;;;;5091865;28;20280;-54
2021/12/22 08:06:51;;;;;;;16.50;8.77;;;-0.80;99.90;;;;;;5094346;28;20195;-52
2021/12/22 08:09:18;;;;;;;18.17;9.50;;;-0.80;99.90;;;;;;5094203;28;20255;-54
2021/12/22 08:11:45;;;;;;;12.60;8.50;;;-0.80;99.90;;;;;;5092861;28;20520;-53
2021/12/22 08:14:12;;;;;;;16.07;8.83;;;-0.80;99.90;;;;;;5092305;28;20209;-52
2021/12/22 08:16:39;;;;;;;14.40;9.17;;;-0.80;99.90;;;;;;5095966;28;20291;-53
2021/12/22 08:19:06;;;;;;;16.20;9.07;;;-0.70;99.90;;;;;;5095884;28;20299;-53
2021/12/22 08:21:33;;;;;;;21.67;8.00;;;-0.70;99.90;;;;;;5095621;27;20209;-53
2021/12/22 08:24:00;;;;;;;17.10;9.37;;;-0.70;99.90;;;;;;5097381;28;20291;-55
2021/12/22 08:26:28;;;;;;;16.40;8.80;;;-0.70;99.90;;;;;;5096358;28;20651;-54
2021/12/22 08:28:55;;;;;;;20.17;8.93;;;-0.60;99.90;;;;;;5092497;28;20241;-54
2021/12/22 08:31:22;;;;;;;15.20;7.97;;;-0.50;99.90;;;;;;5096767;28;20223;-54
2021/12/22 08:33:49;;;;;;;15.37;8.40;;;-0.50;99.90;;;;;;5093195;28;20572;-53
2021/12/22 08:39:05;;;;;;;15.50;8.60;;;-0.50;99.90;;;;;;5095338;28;20293;-54
2021/12/22 08:41:36;;;;;;;16.83;8.87;;;-0.40;99.90;;;;;;5097740;28;20260;-55
2021/12/22 08:44:07;;;;;;;15.87;7.97;;;-0.40;99.90;;;;;;5097613;28;20863;-53
2021/12/22 08:46:37;;;;;;;17.43;8.40;;;-0.20;99.90;;;;;;5097560;28;20205;-55
2021/12/22 08:49:06;;;;;;;18.27;9.23;;;-0.10;99.90;;;;;;5094071;28;20285;-54
2021/12/22 08:51:34;;;;;;;14.43;8.53;;;-0.10;99.90;;;;;;5093877;28;20196;-53
2021/12/22 08:54:01;;;;;;;14.97;8.50;;;-0.10;99.90;;;;;;5096855;28;20294;-53
2021/12/22 08:56:29;;;;;;;17.07;8.33;;;-0.10;99.90;;;;;;5094405;28;20620;-54
2021/12/22 08:58:57;;;;;;;17.27;8.23;;;0.00;99.90;;;;;;5093825;28;20216;-54
2021/12/22 09:01:26;;;;;;;16.30;8.50;;;0.00;99.90;;;;;;5092886;28;20205;-55
2021/12/22 09:03:53;;;;;;;16.47;8.50;;;0.00;99.90;;;;;;5094289;28;20205;-55
2021/12/22 09:06:20;;;;;;;12.07;7.83;;;0.00;99.90;;;;;;5096158;28;20278;-56
2021/12/22 09:08:47;;;;;;;12.67;7.67;;;0.10;99.90;;;;;;5085942;28;20196;-55
2021/12/22 09:11:14;;;;;;;15.67;7.60;;;0.20;99.90;;;;;;5092189;28;20283;-54
2021/12/22 09:13:42;;;;;;;15.43;7.83;;;0.30;99.90;;;;;;5092799;28;20208;-53
2021/12/22 09:16:10;;;;;;;14.03;7.87;;;0.50;99.90;;;;;;5092491;28;20215;-55
2021/12/22 09:18:37;;;;;;;15.13;7.87;;;0.50;99.90;;;;;;5087588;28;20227;-55
2021/12/22 09:21:06;;;;;;;17.07;7.93;;;0.40;99.90;;;;;;5094307;28;20236;-56
2021/12/22 09:23:33;;;;;;;12.23;7.57;;;0.50;99.90;;;;;;5090543;28;20309;-54
2021/12/22 09:26:00;;;;;;;14.47;7.53;;;0.70;99.90;;;;;;5098032;28;20286;-55
2021/12/22 09:28:27;;;;;;;12.03;7.80;;;0.90;99.90;;;;;;5096900;27;20288;-55
2021/12/22 09:30:54;;;;;;;11.77;7.13;;;1.00;99.90;;;;;;5097942;28;20626;-54
2021/12/22 09:33:23;;;;;;;11.93;6.90;;;1.10;99.90;;;;;;5096156;28;20208;-56
2021/12/22 09:35:50;;;;;;;13.23;8.07;;;1.00;99.90;;;;;;5095802;27;20334;-56
2021/12/22 09:38:17;;;;;;;13.47;7.57;;;1.10;99.90;;;;;;5095092;27;20705;-55
2021/12/22 09:40:45;;;;;;;16.33;8.00;;;1.20;99.90;;;;;;5096115;27;20677;-55
2021/12/22 09:43:13;;;;;;;11.77;7.40;;;1.20;99.90;;;;;;5098749;28;20724;-56
2021/12/22 09:45:45;;;;;;;12.53;7.27;;;1.20;99.90;;;;;;5097181;28;20220;-55
2021/12/22 09:53:17;;;;;;;14.33;7.73;;;1.10;99.90;;;;;;5095827;28;20201;-55
2021/12/22 09:55:44;;;;;;;13.10;7.30;;;1.30;99.90;;;;;;5100754;27;20207;-55
2021/12/22 09:58:11;;;;;;;13.20;7.83;;;1.40;99.90;;;;;;5097948;27;20235;-56
2021/12/22 10:00:39;;;;;;;12.87;8.07;;;1.40;99.90;;;;;;5095345;28;20640;-55
2021/12/22 10:03:08;;;;;;;10.57;7.20;;;1.50;99.90;;;;;;5095769;27;20232;-54
2021/12/22 10:05:41;;;;;;;13.43;7.23;;;1.40;99.90;;;;;;5097014;27;20288;-53
2021/12/22 10:08:13;;;;;;;12.20;6.90;;;1.50;99.90;;;;;;5098539;28;20228;-54
2021/12/22 10:10:46;;;;;;;11.90;7.43;;;1.50;99.90;;;;;;5079057;28;20245;-56
2021/12/22 10:13:20;;;;;;;10.23;6.77;;;1.70;99.90;;;;;;5095325;28;20286;-56
2021/12/22 10:15:48;;;;;;;12.00;6.77;;;1.60;99.90;;;;;;5095447;27;20251;-56
2021/12/22 10:18:18;;;;;;;13.97;7.63;;;1.60;99.90;;;;;;5096576;28;20335;-55
2021/12/22 10:20:47;;;;;;;15.37;7.07;;;1.70;99.90;;;;;;5096267;27;20267;-56
2021/12/22 10:23:23;;;;;;;15.27;7.63;;;1.70;99.90;;;;;;5091527;28;20638;-56
2021/12/22 10:26:05;;;;;;;16.00;7.40;;;1.70;99.90;;;;;;5095489;28;20313;-55
2021/12/22 10:28:54;;;;;;;11.90;6.77;;;1.70;99.90;;;;;;5093386;28;20296;-52
2021/12/22 10:31:35;;;;;;;8.73;6.50;;;1.90;99.90;;;;;;5095338;27;20737;-56
2021/12/22 10:34:10;;;;;;;10.90;7.13;;;1.90;99.90;;;;;;5097091;27;20669;-55
2021/12/22 10:36:42;;;;;;;10.60;7.27;;;1.90;99.90;;;;;;5095522;28;20919;-54
2021/12/22 10:39:24;;;;;;;10.77;7.33;;;2.00;99.90;;;;;;5096269;27;21970;-53
2021/12/22 10:41:52;;;;;;;12.77;6.70;;;2.30;99.90;;;;;;5092773;27;20303;-55
2021/12/22 10:44:19;;;;;;;8.30;6.43;;;2.30;99.90;;;;;;5098545;28;20197;-55
2021/12/22 10:46:47;;;;;;;12.40;7.20;;;2.40;99.90;;;;;;5095490;28;20225;-55
2021/12/22 10:49:19;;;;;;;12.67;6.53;;;2.30;99.90;;;;;;5093446;27;20255;-54
2021/12/22 10:52:00;;;;;;;14.37;7.07;;;2.20;99.90;;;;;;5097860;28;20277;-55
2021/12/22 10:54:39;;;;;;;12.17;7.00;;;2.40;99.90;;;;;;5099177;27;20285;-54
2021/12/22 10:57:09;;;;;;;12.37;6.87;;;2.50;99.90;;;;;;5097523;28;20300;-53
2021/12/22 10:59:47;;;;;;;12.83;7.33;;;2.60;99.90;;;;;;5097431;28;20209;-54
2021/12/22 11:02:24;;;;;;;17.23;7.93;;;2.70;99.90;;;;;;5095615;28;20213;-55
2021/12/22 11:04:51;;;;;;;12.33;7.50;;;2.90;99.90;;;;;;5097979;28;20206;-55
2021/12/22 11:07:26;;;;;;;11.27;6.70;;;2.90;99.90;;;;;;5096940;28;20278;-56
2021/12/22 11:09:54;;;;;;;12.20;7.07;;;2.90;99.90;;;;;;5093633;27;20341;-54
2021/12/22 11:12:35;;;;;;;7.67;5.90;;;2.80;99.90;;;;;;5095164;28;20390;-56
2021/12/22 11:15:04;;;;;;;13.17;6.77;;;2.90;99.90;;;;;;5098559;27;20274;-56
2021/12/22 11:17:31;;;;;;;12.33;6.70;;;2.80;99.90;;;;;;5097606;27;20208;-54
2021/12/22 11:20:04;;;;;;;11.37;7.17;;;2.80;99.90;;;;;;5096231;27;21045;-56
2021/12/22 11:22:39;;;;;;;11.00;6.17;;;3.20;99.90;;;;;;5087957;27;20256;-55
2021/12/22 11:25:11;;;;;;;11.37;6.33;;;3.40;99.90;;;;;;5095006;27;20587;-54
2021/12/22 11:27:41;;;;;;;9.87;6.60;;;3.40;99.90;;;;;;5095619;27;20207;-54
2021/12/22 11:30:13;;;;;;;11.13;5.93;;;3.40;99.90;;;;;;5098105;28;20572;-55
2021/12/22 11:32:40;;;;;;;10.63;7.10;;;3.40;99.90;;;;;;5094110;27;20313;-55
2021/12/22 11:35:10;;;;;;;12.93;7.13;;;3.50;99.90;;;;;;5100589;27;20201;-54
2021/12/22 11:37:38;;;;;;;8.57;6.10;;;3.50;99.90;;;;;;5097264;28;20216;-54
2021/12/22 11:40:09;;;;;;;9.33;6.53;;;3.50;99.90;;;;;;5097118;27;20248;-56
2021/12/22 11:42:40;;;;;;;13.40;6.87;;;3.70;99.90;;;;;;5089955;28;20294;-56
2021/12/22 11:45:12;;;;;;;11.60;6.17;;;3.70;99.90;;;;;;5091706;27;20692;-54
2021/12/22 11:47:43;;;;;;;10.43;6.43;;;3.90;99.90;;;;;;5091607;27;20648;-56
2021/12/22 11:50:15;;;;;;;10.57;6.40;;;3.90;99.90;;;;;;5095431;28;20243;-55
2021/12/22 11:52:52;;;;;;;9.23;6.20;;;3.90;99.90;;;;;;5095141;28;20248;-55
2021/12/22 11:55:28;;;;;;;10.03;5.43;;;3.90;99.90;;;;;;5094571;27;20833;-55
2021/12/22 11:58:22;;;;;;;9.80;6.47;;;3.80;99.90;;;;;;5093633;27;20297;-55
2021/12/22 12:00:55;;;;;;;8.47;6.07;;;4.00;99.90;;;;;;5099377;27;20301;-56
2021/12/22 12:03:34;;;;;;;11.63;6.23;;;4.10;99.90;;;;;;5097138;27;20582;-56
2021/12/22 12:06:00;;;;;;;7.37;5.70;;;4.10;99.90;;;;;;5093724;27;20221;-54
2021/12/22 12:08:37;;;;;;;15.67;6.20;;;4.00;99.90;;;;;;5093234;27;20286;-55
2021/12/22 12:11:06;;;;;;;10.80;6.80;;;3.90;99.90;;;;;;5093940;27;20237;-55
2021/12/22 12:13:47;;;;;;;9.97;6.07;;;3.90;99.90;;;;;;5093568;27;20623;-55
2021/12/22 12:21:49;;;;;;;12.63;6.33;;;3.90;99.90;;;;;;5090817;28;20213;-54
2021/12/22 12:24:40;;;;;;;7.80;5.90;;;3.70;99.90;;;;;;5094073;28;20230;-55
2021/12/22 12:27:30;;;;;;;9.80;6.13;;;3.80;99.90;;;;;;5095570;28;20196;-54
2021/12/22 12:29:57;;;;;;;7.77;6.23;;;3.70;99.90;;;;;;5092822;28;20279;-55
2021/12/22 12:32:40;;;;;;;8.63;5.80;;;3.70;99.90;;;;;;5094995;28;20257;-55
2021/12/22 12:35:31;;;;;;;8.57;5.40;;;3.80;99.90;;;;;;5095212;28;20201;-54
2021/12/22 12:38:25;;;;;;;8.97;5.67;;;3.80;99.90;;;;;;5092754;28;20565;-55
2021/12/22 12:40:55;;;;;;;8.73;6.47;;;3.80;99.90;;;;;;5090320;28;20301;-56
2021/12/22 12:43:47;;;;;;;8.70;5.03;;;4.00;99.90;;;;;;5089452;28;20231;-56
2021/12/22 12:46:37;;;;;;;7.63;5.47;;;3.90;99.90;;;;;;5092757;28;20292;-54
2021/12/22 12:49:05;;;;;;;8.33;5.33;;;4.10;99.90;;;;;;5079905;28;20202;-54
2021/12/22 12:51:35;;;;;;;10.33;5.60;;;4.20;99.90;;;;;;5092257;28;20232;-55
2021/12/22 12:54:17;;;;;;;8.43;5.20;;;4.40;99.90;;;;;;5095616;28;20776;-54
2021/12/22 12:56:44;;;;;;;9.40;6.13;;;4.30;99.90;;;;;;5096791;28;20205;-54
2021/12/22 12:59:11;;;;;;;9.83;6.43;;;4.20;99.90;;;;;;5096555;28;20233;-53
2021/12/22 13:01:44;;;;;;;9.57;6.30;;;4.00;99.90;;;;;;5097109;28;20321;-52
2021/12/22 13:04:24;;;;;;;8.43;5.63;;;3.90;99.90;;;;;;5098037;28;20217;-56
2021/12/22 13:07:14;;;;;;;10.73;5.90;;;3.90;99.90;;;;;;5097459;28;20201;-55
2021/12/22 13:09:43;;;;;;;8.07;5.77;;;3.70;99.90;;;;;;5095653;27;20195;-55
2021/12/22 13:17:45;;;;;;;7.77;5.50;;;3.20;99.90;;;;;;5094564;27;20313;-54
2021/12/22 13:20:15;;;;;;;8.40;5.57;;;3.30;99.90;;;;;;5098899;28;20205;-55
2021/12/22 13:22:47;;;;;;;8.90;5.83;;;3.40;99.90;;;;;;5101154;28;20685;-54
2021/12/22 13:25:16;;;;;;;7.97;5.50;;;3.50;99.90;;;;;;5098221;28;20218;-55